Lanark, IL (61046)

1:51 AM CST on December 08, 2016 (GMT -0600)
East Side Lake Carroll | | Change Station

Elev 860 ft 42.18 °N, 89.85 °W | Updated 24 seconds ago

Overcast
Overcast
20.8 °F
Feels Like 5 °F
N
21.2
Wind Variable Wind from NW
Gusts 25.0 mph

Today
High -- | Low -- °F
--% Chance of Precip.
Yesterday
High -- | Low -- °F
Precip. -- in
Pressure 30.22 in
Visibility 10.0 miles
Clouds Overcast 2600 ft
Windchill 5 °F
Dew Point 8 °F
Humidity 56%
Rainfall 0.00 in
Snow Depth Not available.
7:15 AM 4:27 PM
First Quarter, 61% visible
METAR KSFY 080735Z AUTO 28014G21KT 10SM OVC026 M06/M11 A3022 RMK AO2 T10601112
Pressure 30.22 in
Visibility 10.0 miles
Clouds Overcast 2600 ft
Windchill 5 °F
Dew Point 8 °F
Humidity 56%
Rainfall 0.00 in
Snow Depth Not available.
7:15 AM 4:27 PM
First Quarter, 61% visible
METAR KSFY 080735Z AUTO 28014G21KT 10SM OVC026 M06/M11 A3022 RMK AO2 T10601112

10-Day Weather Forecast

Almanac

Astronomy

Dec. 08, 2016 Rise Set
Actual Time
Civil Twilight
Nautical Twilight
Astronomical Twilight
Moon
Length of Visible Light
Length of Day
Tomorrow will be .
, % of the Moon is Illuminated

Today's Extremes

State Highs State Lows

Community

WunderPhotos

Upload Photos

1,956,259 photos uploaded!

WunderBlog® & News

Nearby

Air Quality

  Air Quality AQ Index Pollutant
Not available.

Snow Depth

Station Depth Elevation

Earthquake Activity

City Distance Mag. Time & Date
Minimum magnitude displayed is 2.5.

Coastal Water Temperatures

Place Temperature

Stations

Nearby Weather Stations

Station Location Temp. Windchill Dew Point Humidity Wind Precip. Elev Updated Type
                   

Watches & Warnings

There are currently no watches in effect.